createdAt,value
2022-08-20T00:00:55.073Z,6.38
2022-08-20T00:03:33.954Z,6.53
2022-08-20T00:06:17.696Z,7.77
2022-08-20T00:08:45.475Z,6.72
2022-08-20T00:11:17.450Z,6.68
2022-08-20T00:13:52.530Z,6.70
2022-08-20T00:16:21.131Z,6.30
2022-08-20T00:18:48.663Z,7.20
2022-08-20T00:21:19.187Z,7.28
2022-08-20T00:23:50.275Z,6.32
2022-08-20T00:26:18.546Z,7.70
2022-08-20T00:28:45.427Z,7.35
2022-08-20T00:31:15.326Z,6.80
2022-08-20T00:33:41.835Z,7.40
2022-08-20T00:36:10.802Z,7.25
2022-08-20T00:38:40.168Z,7.00
2022-08-20T00:41:10.800Z,6.63
2022-08-20T00:43:40.976Z,6.60
2022-08-20T00:46:11.942Z,6.22
2022-08-20T00:48:42.446Z,6.97
2022-08-20T00:51:15.331Z,7.30
2022-08-20T00:53:42.839Z,6.50
2022-08-20T00:56:11.385Z,6.28
2022-08-20T00:58:40.057Z,6.18
2022-08-20T01:01:07.064Z,7.65
2022-08-20T01:03:34.180Z,7.05
2022-08-20T01:06:01.193Z,7.22
2022-08-20T01:08:28.055Z,7.93
2022-08-20T01:11:09.519Z,7.38
2022-08-20T01:13:38.773Z,7.10
2022-08-20T01:16:17.660Z,7.95
2022-08-20T01:18:48.523Z,7.22
2022-08-20T01:21:17.718Z,6.93
2022-08-20T01:24:00.467Z,6.82
2022-08-20T01:26:37.277Z,6.75
2022-08-20T01:29:14.776Z,7.88
2022-08-20T01:31:42.432Z,6.95
2022-08-20T01:34:17.828Z,7.13
2022-08-20T01:36:49.108Z,7.07
2022-08-20T01:39:19.971Z,7.43
2022-08-20T01:41:52.350Z,8.45
2022-08-20T01:44:22.473Z,7.82
2022-08-20T01:46:57.833Z,7.57
2022-08-20T01:49:28.322Z,7.50
2022-08-20T01:51:57.556Z,7.22
2022-08-20T01:54:25.859Z,6.47
2022-08-20T01:57:00.552Z,5.80
2022-08-20T01:59:28.323Z,6.33
2022-08-20T02:01:55.535Z,6.45
2022-08-20T02:04:23.130Z,7.22
2022-08-20T02:06:56.675Z,6.28
2022-08-20T02:09:25.500Z,6.55
2022-08-20T02:11:53.452Z,5.72
2022-08-20T02:14:20.361Z,6.57
2022-08-20T02:16:55.160Z,6.90
2022-08-20T02:19:34.784Z,5.85
2022-08-20T02:22:08.626Z,5.55
2022-08-20T02:24:35.463Z,5.60
2022-08-20T02:27:02.146Z,6.38
2022-08-20T02:29:28.928Z,5.10
2022-08-20T02:32:24.227Z,5.07
2022-08-20T02:34:42.460Z,4.60
2022-08-20T02:37:09.565Z,4.65
2022-08-20T02:39:36.611Z,5.43
2022-08-20T02:42:04.629Z,4.68
2022-08-20T02:44:32.291Z,5.50
2022-08-20T02:46:59.980Z,4.43
2022-08-20T02:49:26.639Z,4.73
2022-08-20T02:51:53.262Z,4.57
2022-08-20T02:54:20.115Z,5.30
2022-08-20T02:56:47.476Z,4.78
2022-08-20T02:59:19.670Z,4.78
2022-08-20T03:01:55.791Z,4.35
2022-08-20T03:04:26.861Z,4.80
2022-08-20T03:06:53.415Z,4.63
2022-08-20T03:09:19.925Z,3.97
2022-08-20T03:11:46.596Z,4.03
2022-08-20T03:14:13.375Z,4.43
2022-08-20T03:16:40.055Z,4.30
2022-08-20T03:19:06.755Z,4.20
2022-08-20T03:21:33.785Z,4.68
2022-08-20T03:24:00.351Z,4.50
2022-08-20T03:26:26.958Z,4.53
2022-08-20T03:28:53.548Z,4.82
2022-08-20T03:31:20.907Z,4.53
2022-08-20T03:33:52.776Z,5.18
2022-08-20T03:36:27.757Z,5.63
2022-08-20T03:38:57.805Z,5.97
2022-08-20T03:41:25.632Z,4.43
2022-08-20T03:43:52.855Z,5.15
2022-08-20T03:46:23.641Z,4.68
2022-08-20T03:58:02.172Z,4.75
2022-08-20T04:00:35.809Z,4.45
2022-08-20T04:03:02.618Z,4.82
2022-08-20T04:05:31.395Z,4.72
2022-08-20T04:08:03.107Z,5.70
2022-08-20T04:10:30.971Z,5.05
2022-08-20T04:12:59.346Z,4.40
2022-08-20T04:15:26.652Z,5.10
2022-08-20T04:17:56.406Z,4.53
2022-08-20T04:20:26.019Z,4.47
2022-08-20T04:22:58.470Z,4.60
2022-08-20T04:25:28.542Z,5.03
2022-08-20T04:27:56.837Z,4.65
2022-08-20T04:30:23.767Z,4.68
2022-08-20T04:32:50.271Z,5.53
2022-08-20T04:35:18.826Z,4.97
2022-08-20T04:37:47.128Z,4.38
2022-08-20T04:40:37.191Z,5.15
2022-08-20T04:43:05.169Z,5.32
2022-08-20T04:45:34.324Z,5.33
2022-08-20T04:48:05.907Z,4.43
2022-08-20T04:50:35.850Z,4.13
2022-08-20T04:53:04.556Z,4.63
2022-08-20T04:55:31.477Z,4.70
2022-08-20T04:58:07.054Z,5.10
2022-08-20T05:00:34.041Z,4.18
2022-08-20T05:03:00.635Z,3.80
2022-08-20T05:05:28.044Z,4.55
2022-08-20T05:07:55.767Z,5.55
2022-08-20T05:10:23.807Z,4.75
2022-08-20T05:12:56.574Z,4.47
2022-08-20T05:15:27.158Z,5.10
2022-08-20T05:18:02.697Z,4.68
2022-08-20T05:20:31.632Z,4.68
2022-08-20T05:23:02.020Z,4.70
2022-08-20T05:25:30.000Z,4.68
2022-08-20T05:28:01.960Z,5.13
2022-08-20T05:30:34.129Z,4.85
2022-08-20T05:33:01.934Z,4.45
2022-08-20T05:35:29.202Z,4.63
2022-08-20T05:37:57.299Z,4.82
2022-08-20T05:40:24.976Z,5.30
2022-08-20T05:42:53.083Z,4.00
2022-08-20T05:45:21.271Z,4.00
2022-08-20T05:47:48.330Z,4.35
2022-08-20T05:50:24.024Z,4.85
2022-08-20T05:52:50.705Z,5.72
2022-08-20T05:55:17.406Z,4.63
2022-08-20T05:57:45.876Z,4.78
2022-08-20T06:00:14.640Z,5.30
2022-08-20T06:03:01.340Z,4.25
2022-08-20T06:05:28.076Z,4.70
2022-08-20T06:08:07.120Z,3.90
2022-08-20T06:10:35.568Z,4.05
2022-08-20T06:13:03.077Z,3.70
2022-08-20T06:15:30.814Z,3.50
2022-08-20T06:17:58.414Z,4.05
2022-08-20T06:20:26.124Z,4.18
2022-08-20T06:22:52.823Z,3.42
2022-08-20T06:25:19.864Z,2.70
2022-08-20T06:27:47.161Z,2.58
2022-08-20T06:30:15.488Z,2.58
2022-08-20T06:32:42.078Z,3.00
2022-08-20T06:35:10.612Z,2.33
2022-08-20T06:37:39.312Z,2.43
2022-08-20T06:40:07.133Z,2.83
2022-08-20T06:42:33.770Z,2.28
2022-08-20T06:45:04.902Z,2.33
2022-08-20T06:47:32.967Z,2.38
2022-08-20T06:49:59.989Z,2.03
2022-08-20T06:52:40.610Z,2.20
2022-08-20T06:55:15.618Z,1.38
2022-08-20T06:57:43.543Z,2.10
2022-08-20T07:00:18.676Z,2.33
2022-08-20T07:02:47.241Z,2.00
2022-08-20T07:05:16.552Z,2.00
2022-08-20T07:07:50.819Z,2.05
2022-08-20T07:10:19.033Z,1.83
2022-08-20T07:12:47.008Z,2.08
2022-08-20T07:15:15.235Z,1.27
2022-08-20T07:17:42.663Z,1.73
2022-08-20T07:20:13.290Z,1.58
2022-08-20T07:22:41.001Z,1.33
2022-08-20T07:25:12.661Z,1.70
2022-08-20T07:27:40.091Z,1.67
2022-08-20T07:30:27.569Z,1.27
2022-08-20T07:32:54.248Z,1.15
2022-08-20T07:35:21.643Z,2.00
2022-08-20T07:37:50.236Z,1.33
2022-08-20T07:40:25.878Z,1.47
2022-08-20T07:42:54.797Z,1.63
2022-08-20T07:45:22.803Z,2.30
2022-08-20T07:47:50.725Z,1.60
2022-08-20T07:50:19.732Z,1.17
2022-08-20T07:52:48.358Z,1.03
2022-08-20T07:55:18.129Z,1.98
2022-08-20T07:57:47.632Z,1.48
2022-08-20T08:00:17.151Z,1.35
2022-08-20T08:02:43.821Z,1.50
2022-08-20T08:05:10.923Z,1.20
2022-08-20T08:07:39.428Z,1.00
2022-08-20T08:10:14.263Z,1.50
2022-08-20T08:12:47.744Z,1.52
2022-08-20T08:15:19.211Z,1.60
2022-08-20T08:17:48.710Z,1.10
2022-08-20T08:20:16.497Z,1.60
2022-08-20T08:22:44.168Z,1.83
2022-08-20T08:25:14.105Z,1.13
2022-08-20T08:27:41.287Z,0.93
2022-08-20T08:30:09.994Z,1.63
2022-08-20T08:32:37.400Z,1.30
2022-08-20T08:35:09.382Z,1.45
2022-08-20T08:37:38.051Z,1.23
2022-08-20T08:40:06.004Z,1.38
2022-08-20T08:42:44.854Z,1.10
2022-08-20T08:45:16.199Z,1.73
2022-08-20T08:47:44.917Z,0.93
2022-08-20T08:50:38.594Z,1.35
2022-08-20T08:53:15.757Z,1.05
2022-08-20T08:55:42.639Z,1.17
2022-08-20T08:58:17.126Z,0.95
2022-08-20T09:00:50.756Z,1.35
2022-08-20T09:03:29.417Z,1.65
2022-08-20T09:06:00.152Z,1.10
2022-08-20T09:08:32.994Z,1.40
2022-08-20T09:11:06.409Z,1.13
2022-08-20T09:13:33.720Z,1.45
2022-08-20T09:16:00.780Z,1.60
2022-08-20T09:18:27.692Z,1.85
2022-08-20T09:20:54.460Z,0.80
2022-08-20T09:23:21.029Z,1.70
2022-08-20T09:25:48.107Z,1.00
2022-08-20T09:28:14.783Z,1.42
2022-08-20T09:30:42.202Z,1.30
2022-08-20T09:33:11.075Z,1.27
2022-08-20T09:35:38.151Z,1.30
2022-08-20T09:38:04.866Z,1.08
2022-08-20T09:40:31.626Z,1.30
2022-08-20T09:42:58.550Z,1.30
2022-08-20T09:45:28.271Z,1.47
2022-08-20T09:47:57.211Z,0.93
2022-08-20T09:50:26.959Z,1.02
2022-08-20T09:52:55.480Z,1.40
2022-08-20T09:55:32.764Z,1.23
2022-08-20T09:58:02.414Z,1.20
2022-08-20T10:00:29.301Z,0.90
2022-08-20T10:02:55.950Z,1.08
2022-08-20T10:05:22.809Z,1.02
2022-08-20T10:07:49.450Z,1.40
2022-08-20T10:10:16.181Z,0.90
2022-08-20T10:12:43.257Z,1.15
2022-08-20T10:15:10.834Z,1.13
2022-08-20T10:17:39.649Z,1.10
2022-08-20T10:20:08.389Z,1.08
2022-08-20T10:22:35.831Z,1.10
2022-08-20T10:25:02.406Z,1.02
2022-08-20T10:27:29.160Z,1.70
2022-08-20T10:29:55.863Z,1.30
2022-08-20T10:32:22.579Z,1.20
2022-08-20T10:34:49.239Z,1.00
2022-08-20T10:37:18.783Z,1.17
2022-08-20T10:39:46.128Z,1.13
2022-08-20T10:42:13.642Z,1.95
2022-08-20T10:44:40.618Z,1.30
2022-08-20T10:47:15.572Z,1.00
2022-08-20T10:49:42.574Z,1.20
2022-08-20T10:52:09.413Z,1.70
2022-08-20T10:54:35.965Z,1.25
2022-08-20T10:57:03.960Z,1.52
2022-08-20T10:59:30.775Z,1.40
2022-08-20T11:01:57.300Z,1.17
2022-08-20T11:04:24.071Z,1.30
2022-08-20T11:06:50.798Z,1.60
2022-08-20T11:09:17.422Z,1.13
2022-08-20T11:11:43.920Z,1.70
2022-08-20T11:14:10.589Z,1.35
2022-08-20T11:16:37.412Z,1.33
2022-08-20T11:19:04.095Z,1.60
2022-08-20T11:21:31.129Z,1.23
2022-08-20T11:24:02.233Z,1.50
2022-08-20T11:26:30.873Z,1.55
2022-08-20T11:28:57.585Z,1.42
2022-08-20T11:31:24.163Z,1.45
2022-08-20T11:33:50.792Z,1.58
2022-08-20T11:36:17.531Z,1.23
2022-08-20T11:38:44.172Z,1.10
2022-08-20T11:41:10.704Z,1.60
2022-08-20T11:43:38.696Z,1.40
2022-08-20T11:46:05.440Z,1.45
2022-08-20T11:48:32.089Z,1.00
2022-08-20T11:50:59.682Z,1.40
2022-08-20T11:53:26.452Z,1.30
2022-08-20T11:55:53.277Z,1.60
2022-08-20T11:58:20.323Z,1.20
2022-08-20T12:00:49.889Z,1.40
2022-08-20T12:03:16.568Z,1.40
2022-08-20T12:05:47.322Z,1.10
2022-08-20T12:08:25.221Z,1.42
2022-08-20T12:10:56.168Z,1.67
2022-08-20T12:13:30.685Z,1.03
2022-08-20T12:16:09.825Z,1.58
2022-08-20T12:18:39.840Z,1.85
2022-08-20T12:21:06.521Z,1.23
2022-08-20T12:23:33.500Z,1.35
2022-08-20T12:26:12.799Z,1.57
2022-08-20T12:28:41.067Z,1.10
2022-08-20T12:31:12.602Z,0.98
2022-08-20T12:33:41.012Z,2.17
2022-08-20T12:36:08.061Z,1.63
2022-08-20T12:38:37.449Z,1.83
2022-08-20T12:41:04.248Z,2.00
2022-08-20T12:43:30.857Z,1.50
2022-08-20T12:45:57.455Z,1.40
2022-08-20T12:48:24.201Z,1.67
2022-08-20T12:50:53.672Z,1.60
2022-08-20T12:53:20.294Z,1.52
2022-08-20T12:55:47.165Z,1.88
2022-08-20T12:58:14.125Z,1.50
2022-08-20T13:00:48.623Z,2.13
2022-08-20T13:03:21.504Z,1.30
2022-08-20T13:05:49.152Z,4.60
2022-08-20T13:08:18.117Z,1.95
2022-08-20T13:10:46.146Z,1.88
2022-08-20T13:13:15.548Z,2.08
2022-08-20T13:15:48.565Z,1.60
2022-08-20T13:18:15.211Z,2.35
2022-08-20T13:20:41.863Z,1.75
2022-08-20T13:23:08.585Z,1.75
2022-08-20T13:25:35.372Z,2.03
2022-08-20T13:28:04.615Z,2.47
2022-08-20T13:30:33.156Z,2.15
2022-08-20T13:32:59.772Z,2.25
2022-08-20T13:35:27.714Z,1.85
2022-08-20T13:37:54.533Z,1.92
2022-08-20T13:40:21.427Z,2.10
2022-08-20T13:42:48.070Z,2.10
2022-08-20T13:45:16.436Z,2.05
2022-08-20T13:47:43.278Z,2.10
2022-08-20T13:50:16.679Z,2.17
2022-08-20T13:52:44.116Z,3.33
2022-08-20T13:55:13.549Z,2.42
2022-08-20T13:57:42.679Z,2.08
2022-08-20T14:00:14.069Z,2.42
2022-08-20T14:02:42.022Z,2.55
2022-08-20T14:05:09.487Z,2.30
2022-08-20T14:07:37.762Z,3.15
2022-08-20T14:10:08.766Z,3.47
2022-08-20T14:12:35.838Z,4.03
2022-08-20T14:15:02.835Z,2.50
2022-08-20T14:17:35.413Z,2.23
2022-08-20T14:20:10.634Z,2.90
2022-08-20T14:22:37.551Z,2.90
2022-08-20T14:25:06.380Z,1.90
2022-08-20T14:27:34.173Z,3.00
2022-08-20T14:30:02.116Z,1.60
2022-08-20T14:32:28.978Z,1.70
2022-08-20T14:34:58.143Z,3.33
2022-08-20T14:37:30.458Z,1.60
2022-08-20T14:39:59.247Z,2.70
2022-08-20T14:42:28.356Z,2.40
2022-08-20T14:44:57.980Z,2.17
2022-08-20T14:47:29.821Z,1.70
2022-08-20T14:50:05.332Z,2.80
2022-08-20T14:52:36.825Z,1.88
2022-08-20T14:55:06.251Z,2.10
2022-08-20T14:57:33.681Z,1.70
2022-08-20T15:00:00.726Z,2.20
2022-08-20T15:02:27.672Z,1.60
2022-08-20T15:04:55.652Z,1.90
2022-08-20T15:07:28.307Z,1.33
2022-08-20T15:09:56.058Z,1.45
2022-08-20T15:12:23.652Z,2.00
2022-08-20T15:14:51.133Z,2.10
2022-08-20T15:17:24.419Z,2.25
2022-08-20T15:19:51.281Z,2.27
2022-08-20T15:22:19.995Z,1.40
2022-08-20T15:24:50.089Z,1.67
2022-08-20T15:27:25.836Z,1.70
2022-08-20T15:29:55.247Z,1.90
2022-08-20T15:32:24.774Z,1.40
2022-08-20T15:34:51.782Z,1.92
2022-08-20T15:37:21.974Z,1.40
2022-08-20T15:39:49.979Z,1.65
2022-08-20T15:42:18.469Z,1.80
2022-08-20T15:44:46.111Z,1.27
2022-08-20T15:47:26.444Z,1.60
2022-08-20T15:50:00.327Z,1.85
2022-08-20T15:52:33.438Z,1.80
2022-08-20T15:55:01.704Z,2.13
2022-08-20T15:57:36.963Z,1.90
2022-08-20T16:00:13.671Z,1.65
2022-08-20T16:03:12.305Z,1.50
2022-08-20T16:05:50.755Z,1.40
2022-08-20T16:08:20.323Z,1.73
2022-08-20T16:10:59.864Z,1.77
2022-08-20T16:13:40.380Z,1.63
2022-08-20T16:16:14.890Z,1.95
2022-08-20T16:18:44.482Z,1.50
2022-08-20T16:21:15.565Z,1.75
2022-08-20T16:23:44.138Z,1.90
2022-08-20T16:26:19.894Z,1.65
2022-08-20T16:29:11.467Z,1.83
2022-08-20T16:32:00.381Z,1.60
2022-08-20T16:34:49.724Z,1.20
2022-08-20T16:37:33.260Z,1.70
2022-08-20T16:40:15.059Z,1.40
2022-08-20T16:42:45.845Z,1.60
2022-08-20T16:45:20.206Z,1.75
2022-08-20T16:47:49.629Z,1.83
2022-08-20T16:50:21.745Z,1.53
2022-08-20T16:52:50.094Z,1.65
2022-08-20T16:59:09.984Z,1.20
2022-08-20T17:01:37.343Z,1.50
2022-08-20T17:04:05.751Z,1.50
2022-08-20T17:06:36.554Z,1.63
2022-08-20T17:09:14.524Z,1.55
2022-08-20T17:12:09.228Z,1.20
2022-08-20T17:14:50.363Z,1.40
2022-08-20T17:17:26.638Z,1.20
2022-08-20T17:19:56.622Z,2.10
2022-08-20T17:22:25.846Z,1.40
2022-08-20T17:24:52.711Z,1.73
2022-08-20T17:27:31.584Z,1.38
2022-08-20T17:30:20.453Z,1.97
2022-08-20T17:32:57.475Z,1.38
2022-08-20T17:35:31.513Z,1.38
2022-08-20T17:38:00.360Z,1.45
2022-08-20T17:40:31.513Z,1.50
2022-08-20T17:43:02.585Z,1.20
2022-08-20T17:45:36.139Z,1.13
2022-08-20T17:48:06.950Z,1.40
2022-08-20T17:50:40.282Z,1.55
2022-08-20T17:53:09.551Z,1.33
2022-08-20T17:55:39.570Z,1.60
2022-08-20T17:58:11.644Z,1.17
2022-08-20T18:00:38.469Z,1.33
2022-08-20T18:03:25.753Z,1.92
2022-08-20T18:06:03.763Z,1.02
2022-08-20T18:08:35.252Z,1.60
2022-08-20T18:11:13.874Z,1.40
2022-08-20T18:13:59.304Z,1.80
2022-08-20T18:16:30.585Z,1.30
2022-08-20T18:19:13.012Z,1.60
2022-08-20T18:21:53.724Z,1.53
2022-08-20T18:24:44.879Z,2.35
2022-08-20T18:27:17.658Z,2.63
2022-08-20T18:29:52.109Z,2.65
2022-08-20T18:32:29.569Z,1.80
2022-08-20T18:35:31.224Z,2.17
2022-08-20T18:37:58.012Z,2.63
2022-08-20T18:40:31.113Z,3.15
2022-08-20T18:43:00.352Z,2.03
2022-08-20T18:45:34.623Z,2.33
2022-08-20T18:48:04.136Z,1.98
2022-08-20T18:50:39.937Z,1.98
2022-08-20T18:53:34.205Z,2.15
2022-08-20T18:56:03.357Z,2.25
2022-08-20T18:58:37.356Z,3.20
2022-08-20T19:01:13.044Z,3.17
2022-08-20T19:03:47.569Z,2.60
2022-08-20T19:06:23.105Z,2.50
2022-08-20T19:08:59.510Z,2.33
2022-08-20T19:11:28.882Z,2.55
2022-08-20T19:14:10.368Z,3.67
2022-08-20T19:16:49.124Z,2.75
2022-08-20T19:19:19.037Z,3.95
2022-08-20T19:21:45.956Z,2.58
2022-08-20T19:24:17.337Z,3.28
2022-08-20T19:26:54.039Z,3.10
2022-08-20T19:29:27.284Z,2.70
2022-08-20T19:32:08.317Z,2.97
2022-08-20T19:34:36.182Z,2.47
2022-08-20T19:37:10.041Z,2.25
2022-08-20T19:39:52.257Z,2.67
2022-08-20T19:42:24.153Z,2.40
2022-08-20T19:45:04.586Z,2.10
2022-08-20T19:47:46.212Z,2.10
2022-08-20T19:50:20.852Z,1.80
2022-08-20T19:53:28.849Z,2.20
2022-08-20T19:56:03.227Z,2.20
2022-08-20T19:58:31.407Z,2.63
2022-08-20T20:00:58.397Z,2.50
2022-08-20T20:03:33.430Z,2.45
2022-08-20T20:06:16.186Z,3.00
2022-08-20T20:09:06.367Z,2.50
2022-08-20T20:11:41.788Z,3.28
2022-08-20T20:14:11.478Z,2.60
2022-08-20T20:16:39.720Z,2.58
2022-08-20T20:19:25.800Z,2.20
2022-08-20T20:22:18.904Z,1.80
2022-08-20T20:24:56.808Z,1.55
2022-08-20T20:27:29.425Z,1.73
2022-08-20T20:30:03.289Z,1.48
2022-08-20T20:32:33.637Z,1.75
2022-08-20T20:35:04.059Z,1.90
2022-08-20T20:37:48.975Z,1.58
2022-08-20T20:40:25.351Z,2.35
2022-08-20T20:43:09.054Z,2.00
2022-08-20T20:45:39.547Z,2.05
2022-08-20T20:48:18.392Z,2.10
2022-08-20T20:50:48.048Z,1.98
2022-08-20T20:53:47.398Z,2.65
2022-08-20T20:56:33.063Z,3.97
2022-08-20T20:59:05.838Z,1.77
2022-08-20T21:01:45.717Z,1.90
2022-08-20T21:04:17.065Z,1.73
2022-08-20T21:06:44.187Z,1.90
2022-08-20T21:09:10.829Z,1.85
2022-08-20T21:11:37.586Z,2.00
2022-08-20T21:14:04.575Z,2.42
2022-08-20T21:16:31.176Z,2.28
2022-08-20T21:18:58.317Z,2.50
2022-08-20T21:21:24.936Z,1.88
2022-08-20T21:23:51.696Z,2.33
2022-08-20T21:26:18.760Z,2.13
2022-08-20T21:28:45.520Z,2.10
2022-08-20T21:31:13.113Z,2.03
2022-08-20T21:33:39.694Z,2.28
2022-08-20T21:36:06.455Z,2.35
2022-08-20T21:38:33.086Z,2.03
2022-08-20T21:41:00.308Z,2.67
2022-08-20T21:43:27.054Z,2.53
2022-08-20T21:46:01.393Z,2.00
2022-08-20T21:48:29.005Z,2.85
2022-08-20T21:50:55.625Z,2.45
2022-08-20T21:53:23.288Z,2.72
2022-08-20T21:55:49.968Z,2.95
2022-08-20T21:58:18.091Z,2.50
2022-08-20T22:00:53.590Z,3.20
2022-08-20T22:03:23.252Z,2.92
2022-08-20T22:05:51.359Z,2.42
2022-08-20T22:08:19.034Z,2.47
2022-08-20T22:10:45.746Z,2.65
2022-08-20T22:13:13.189Z,2.30
2022-08-20T22:15:40.553Z,2.20
2022-08-20T22:18:07.606Z,2.97
2022-08-20T22:20:34.495Z,2.83
2022-08-20T22:23:03.507Z,2.30
2022-08-20T22:25:30.239Z,3.15
2022-08-20T22:27:56.808Z,2.50
2022-08-20T22:30:23.744Z,2.60
2022-08-20T22:32:52.303Z,2.60
2022-08-20T22:35:19.615Z,3.03
2022-08-20T22:37:46.300Z,2.08
2022-08-20T22:40:13.354Z,2.53
2022-08-20T22:42:40.240Z,2.20
2022-08-20T22:45:14.463Z,2.40
2022-08-20T22:47:43.208Z,2.55
2022-08-20T22:50:11.925Z,2.58
2022-08-20T22:52:41.946Z,2.75
2022-08-20T22:55:09.762Z,2.55
2022-08-20T22:57:37.809Z,2.22
2022-08-20T23:00:12.367Z,2.70
2022-08-20T23:02:41.295Z,2.10
2022-08-20T23:05:11.933Z,1.90
2022-08-20T23:07:38.622Z,2.42
2022-08-20T23:10:05.512Z,2.35
2022-08-20T23:12:32.068Z,2.28
2022-08-20T23:14:58.687Z,2.05
2022-08-20T23:17:25.447Z,2.50
2022-08-20T23:19:52.496Z,2.60
2022-08-20T23:22:19.439Z,2.38
2022-08-20T23:24:47.106Z,2.20
2022-08-20T23:27:16.888Z,2.22
2022-08-20T23:29:43.861Z,1.77
2022-08-20T23:32:11.943Z,2.05
2022-08-20T23:34:39.085Z,2.08
2022-08-20T23:37:07.002Z,2.30
2022-08-20T23:39:34.048Z,3.08
2022-08-20T23:42:01.939Z,2.15
2022-08-20T23:44:28.838Z,2.33
2022-08-20T23:47:02.109Z,2.15
2022-08-20T23:49:31.261Z,2.60
2022-08-20T23:52:00.449Z,1.83
2022-08-20T23:54:29.198Z,2.25
2022-08-20T23:56:56.980Z,2.00
2022-08-20T23:59:24.714Z,2.40
